createdAt,value
2019-04-07T00:01:19.403Z,8.93
2019-04-07T00:03:46.062Z,9.47
2019-04-07T00:06:12.712Z,9.00
2019-04-07T00:08:39.588Z,8.75
2019-04-07T00:11:06.417Z,9.00
2019-04-07T00:13:32.998Z,8.90
2019-04-07T00:16:00.304Z,8.17
2019-04-07T00:18:28.239Z,10.83
2019-04-07T00:20:55.227Z,8.83
2019-04-07T00:23:21.817Z,8.23
2019-04-07T00:25:48.684Z,8.40
2019-04-07T00:28:15.267Z,9.13
2019-04-07T00:30:42.529Z,8.57
2019-04-07T00:33:09.282Z,7.87
2019-04-07T00:35:36.531Z,8.73
2019-04-07T00:38:09.582Z,8.47
2019-04-07T00:40:37.086Z,8.50
2019-04-07T00:43:04.516Z,9.30
2019-04-07T00:45:31.621Z,7.77
2019-04-07T00:47:59.632Z,8.05
2019-04-07T00:50:26.522Z,7.93
2019-04-07T00:52:53.171Z,9.17
2019-04-07T00:55:21.014Z,10.83
2019-04-07T00:57:48.242Z,8.10
2019-04-07T01:00:16.603Z,7.10
2019-04-07T01:02:44.078Z,7.07
2019-04-07T01:05:10.648Z,7.70
2019-04-07T01:07:37.241Z,8.33
2019-04-07T01:10:05.044Z,8.23
2019-04-07T01:12:31.942Z,7.12
2019-04-07T01:14:58.759Z,7.63
2019-04-07T01:17:26.945Z,7.47
2019-04-07T01:19:53.743Z,7.17
2019-04-07T01:22:20.816Z,8.13
2019-04-07T01:24:49.470Z,8.20
2019-04-07T01:27:16.096Z,9.67
2019-04-07T01:29:43.200Z,7.93
2019-04-07T01:32:10.246Z,7.70
2019-04-07T01:34:36.942Z,8.17
2019-04-07T01:37:03.630Z,7.73
2019-04-07T01:39:31.509Z,11.27
2019-04-07T01:41:58.983Z,8.95
2019-04-07T01:44:25.699Z,8.60
2019-04-07T01:46:52.486Z,8.13
2019-04-07T01:49:19.482Z,9.47
2019-04-07T01:51:46.504Z,7.57
2019-04-07T01:54:13.514Z,7.93
2019-04-07T01:56:40.268Z,9.13
2019-04-07T01:59:10.539Z,10.20
2019-04-07T02:01:36.465Z,7.83
2019-04-07T02:04:03.942Z,12.00
2019-04-07T02:06:31.142Z,11.87
2019-04-07T02:08:58.302Z,12.28
2019-04-07T02:11:25.150Z,9.30
2019-04-07T02:13:51.761Z,9.20
2019-04-07T02:16:19.182Z,10.67
2019-04-07T02:18:46.571Z,9.33
2019-04-07T02:21:13.332Z,8.93
2019-04-07T02:23:41.475Z,9.03
2019-04-07T02:26:08.769Z,10.00
2019-04-07T02:28:35.829Z,9.70
2019-04-07T02:31:02.670Z,9.70
2019-04-07T02:33:29.485Z,9.73
2019-04-07T02:36:12.080Z,9.40
2019-04-07T02:38:27.872Z,8.83
2019-04-07T02:40:55.715Z,8.83
2019-04-07T02:46:06.775Z,9.00
2019-04-07T02:48:33.894Z,10.67
2019-04-07T02:51:01.277Z,9.27
2019-04-07T02:53:28.827Z,10.03
2019-04-07T02:55:55.483Z,9.67
2019-04-07T02:58:22.821Z,14.20
2019-04-07T03:00:50.735Z,9.00
2019-04-07T03:03:18.688Z,9.40
2019-04-07T03:05:45.639Z,9.00
2019-04-07T03:08:12.290Z,8.37
2019-04-07T03:10:38.970Z,8.50
2019-04-07T03:13:06.212Z,8.17
2019-04-07T03:15:34.324Z,9.05
2019-04-07T03:18:01.083Z,10.67
2019-04-07T03:20:28.128Z,9.30
2019-04-07T03:22:55.903Z,13.07
2019-04-07T03:28:08.757Z,13.13
2019-04-07T03:30:38.150Z,11.73
2019-04-07T03:33:07.849Z,13.28
2019-04-07T03:35:34.803Z,10.17
2019-04-07T03:38:02.031Z,11.17
2019-04-07T03:40:28.686Z,14.40
2019-04-07T03:42:55.630Z,13.50
2019-04-07T03:45:22.518Z,11.15
2019-04-07T03:47:49.129Z,18.83
2019-04-07T03:50:16.587Z,16.03
2019-04-07T03:52:43.245Z,15.70
2019-04-07T03:55:10.116Z,13.07
2019-04-07T03:57:37.181Z,12.30
2019-04-07T04:00:04.215Z,12.40
2019-04-07T04:02:31.563Z,15.77
2019-04-07T04:04:58.493Z,15.73
2019-04-07T04:07:31.594Z,17.77
2019-04-07T04:09:53.791Z,18.43
2019-04-07T04:12:21.257Z,16.93
2019-04-07T04:14:48.732Z,18.45
2019-04-07T04:17:16.455Z,17.30
2019-04-07T04:19:43.994Z,18.60
2019-04-07T04:22:11.617Z,19.03
2019-04-07T04:24:38.280Z,20.17
2019-04-07T04:27:04.924Z,19.37
2019-04-07T04:29:31.821Z,19.60
2019-04-07T04:31:59.640Z,17.00
2019-04-07T04:34:27.135Z,17.93
2019-04-07T04:36:54.523Z,18.27
2019-04-07T04:39:21.487Z,15.73
2019-04-07T04:41:49.016Z,15.20
2019-04-07T04:44:18.449Z,16.57
2019-04-07T04:46:45.355Z,17.73
2019-04-07T04:49:12.019Z,16.93
2019-04-07T04:51:39.939Z,17.73
2019-04-07T04:54:08.313Z,14.33
2019-04-07T04:56:35.944Z,15.83
2019-04-07T04:59:02.727Z,13.13
2019-04-07T05:01:29.412Z,16.27
2019-04-07T05:03:56.020Z,14.17
2019-04-07T05:06:22.928Z,13.47
2019-04-07T05:08:49.972Z,15.27
2019-04-07T05:11:16.743Z,17.03
2019-04-07T05:13:44.621Z,16.40
2019-04-07T05:16:11.847Z,15.38
2019-04-07T05:18:38.715Z,15.47
2019-04-07T05:21:05.556Z,17.80
2019-04-07T05:26:18.965Z,15.53
2019-04-07T05:28:45.944Z,15.73
2019-04-07T05:31:13.286Z,18.60
2019-04-07T05:33:40.005Z,26.00
2019-04-07T05:36:06.975Z,18.43
2019-04-07T05:38:34.430Z,27.25
2019-04-07T05:41:01.694Z,19.57
2019-04-07T05:43:28.438Z,22.07
2019-04-07T05:45:55.492Z,30.93
2019-04-07T05:48:22.748Z,24.23
2019-04-07T05:50:49.337Z,33.43
2019-04-07T05:53:15.947Z,46.30
2019-04-07T05:55:42.818Z,43.87
2019-04-07T05:58:09.418Z,44.83
2019-04-07T06:00:36.230Z,45.87
2019-04-07T06:03:06.523Z,37.48
2019-04-07T06:05:31.127Z,50.57
2019-04-07T06:08:00.861Z,44.98
2019-04-07T06:10:28.689Z,53.07
2019-04-07T06:12:55.390Z,49.00
2019-04-07T06:15:23.388Z,45.57
2019-04-07T06:17:50.165Z,41.00
2019-04-07T06:20:18.896Z,53.70
2019-04-07T06:22:46.988Z,38.50
2019-04-07T06:25:14.167Z,37.53
2019-04-07T06:27:44.916Z,40.23
2019-04-07T06:30:09.786Z,29.13
2019-04-07T06:32:38.405Z,32.77
2019-04-07T06:35:05.092Z,35.73
2019-04-07T06:37:31.838Z,36.93
2019-04-07T06:40:01.083Z,34.90
2019-04-07T06:42:31.559Z,35.90
2019-04-07T06:44:56.684Z,39.70
2019-04-07T06:47:25.007Z,34.25
2019-04-07T06:49:52.072Z,41.00
2019-04-07T06:52:19.285Z,45.43
2019-04-07T06:54:52.024Z,40.55
2019-04-07T06:57:15.965Z,38.67
2019-04-07T06:59:45.640Z,43.43
2019-04-07T07:02:12.092Z,41.20
2019-04-07T07:04:41.587Z,38.90
2019-04-07T07:07:07.400Z,39.08
2019-04-07T07:09:34.025Z,35.70
2019-04-07T07:12:00.702Z,30.77
2019-04-07T07:14:38.034Z,39.00
2019-04-07T07:16:56.561Z,30.97
2019-04-07T07:19:26.341Z,36.65
2019-04-07T07:21:52.262Z,32.07
2019-04-07T07:24:25.405Z,37.00
2019-04-07T07:26:56.999Z,29.87
2019-04-07T07:29:22.359Z,26.70
2019-04-07T07:31:53.064Z,26.40
2019-04-07T07:34:30.454Z,29.23
2019-04-07T07:37:13.318Z,25.80
2019-04-07T07:39:57.976Z,24.87
2019-04-07T07:42:25.730Z,22.77
2019-04-07T07:44:53.569Z,21.83
2019-04-07T07:47:23.023Z,22.77
2019-04-07T07:50:08.956Z,21.10
2019-04-07T07:52:39.868Z,18.23
2019-04-07T07:55:13.104Z,20.30
2019-04-07T08:00:28.289Z,16.83
2019-04-07T08:02:56.144Z,18.20
2019-04-07T08:05:31.715Z,18.90
2019-04-07T08:08:02.407Z,18.57
2019-04-07T08:10:34.268Z,18.12
2019-04-07T08:13:07.868Z,14.90
2019-04-07T08:15:34.781Z,16.23
2019-04-07T08:18:07.041Z,17.10
2019-04-07T08:23:22.015Z,15.80
2019-04-07T08:25:52.905Z,16.80
2019-04-07T08:28:24.461Z,10.57
2019-04-07T08:30:56.419Z,13.93
2019-04-07T08:33:24.794Z,14.43
2019-04-07T08:35:54.874Z,13.10
2019-04-07T08:38:25.311Z,11.60
2019-04-07T08:41:10.173Z,9.20
2019-04-07T08:43:39.839Z,9.10
2019-04-07T08:46:11.109Z,8.70
2019-04-07T08:48:38.949Z,7.97
2019-04-07T08:51:11.266Z,9.00
2019-04-07T08:53:43.564Z,7.00
2019-04-07T08:56:13.176Z,8.97
2019-04-07T08:58:42.862Z,8.27
2019-04-07T09:01:10.524Z,7.20
2019-04-07T09:03:37.200Z,8.37
2019-04-07T09:06:04.565Z,7.47
2019-04-07T09:08:34.641Z,8.87
2019-04-07T09:11:06.056Z,7.40
2019-04-07T09:13:34.223Z,7.23
2019-04-07T09:16:01.159Z,6.93
2019-04-07T09:18:27.759Z,7.17
2019-04-07T09:23:40.416Z,7.33
2019-04-07T09:26:01.563Z,6.62
2019-04-07T09:28:28.521Z,6.57
2019-04-07T09:30:56.340Z,6.73
2019-04-07T09:33:27.603Z,6.23
2019-04-07T09:38:40.917Z,5.67
2019-04-07T09:41:09.480Z,4.45
2019-04-07T09:46:24.207Z,6.03
2019-04-07T09:48:52.825Z,5.60
2019-04-07T09:51:22.772Z,4.47
2019-04-07T09:53:52.398Z,4.40
2019-04-07T09:56:20.050Z,5.00
2019-04-07T09:58:47.653Z,4.87
2019-04-07T10:01:18.954Z,4.03
2019-04-07T10:03:42.765Z,3.97
2019-04-07T10:06:10.617Z,4.23
2019-04-07T10:08:40.841Z,4.67
2019-04-07T10:11:08.510Z,4.40
2019-04-07T10:13:49.664Z,4.20
2019-04-07T10:16:11.910Z,5.07
2019-04-07T10:18:40.101Z,4.13
2019-04-07T10:21:14.293Z,3.97
2019-04-07T10:23:40.695Z,3.67
2019-04-07T10:26:09.618Z,3.10
2019-04-07T10:28:40.901Z,3.73
2019-04-07T10:31:09.256Z,3.83
2019-04-07T10:33:37.813Z,3.80
2019-04-07T10:36:09.337Z,3.87
2019-04-07T10:38:41.427Z,3.47
2019-04-07T10:41:10.721Z,4.00
2019-04-07T10:46:28.344Z,2.92
2019-04-07T10:48:57.837Z,3.30
2019-04-07T10:51:34.378Z,3.70
2019-04-07T10:54:03.779Z,5.60
2019-04-07T10:56:30.849Z,3.83
2019-04-07T10:58:59.687Z,3.17
2019-04-07T11:01:33.632Z,3.83
2019-04-07T11:04:00.389Z,3.03
2019-04-07T11:06:27.321Z,3.60
2019-04-07T11:08:56.811Z,4.62
2019-04-07T11:11:28.597Z,3.83
2019-04-07T11:13:56.980Z,3.77
2019-04-07T11:16:27.254Z,3.57
2019-04-07T11:18:58.539Z,3.80
2019-04-07T11:21:34.950Z,4.03
2019-04-07T11:26:48.558Z,4.47
2019-04-07T11:29:26.285Z,3.70
2019-04-07T11:31:55.386Z,5.17
2019-04-07T11:34:28.222Z,3.50
2019-04-07T11:36:57.104Z,3.00
2019-04-07T11:39:33.711Z,3.87
2019-04-07T11:44:57.512Z,3.63
2019-04-07T11:47:26.538Z,3.10
2019-04-07T11:49:53.934Z,3.58
2019-04-07T11:52:21.042Z,2.90
2019-04-07T11:54:51.160Z,3.20
2019-04-07T11:58:03.645Z,6.17
2019-04-07T11:59:57.588Z,3.60
2019-04-07T12:02:28.853Z,4.00
2019-04-07T12:04:58.972Z,3.77
2019-04-07T12:07:31.131Z,3.97
2019-04-07T12:10:03.017Z,3.03
2019-04-07T12:12:31.125Z,3.47
2019-04-07T12:14:58.890Z,2.70
2019-04-07T12:17:25.655Z,2.83
2019-04-07T12:19:55.987Z,2.47
2019-04-07T12:22:23.698Z,2.43
2019-04-07T12:24:52.131Z,2.10
2019-04-07T12:27:21.605Z,2.60
2019-04-07T12:29:49.507Z,2.40
2019-04-07T12:32:17.058Z,1.97
2019-04-07T12:34:46.392Z,2.30
2019-04-07T12:37:12.899Z,2.25
2019-04-07T12:39:40.715Z,2.50
2019-04-07T12:42:08.480Z,2.23
2019-04-07T12:44:36.453Z,3.43
2019-04-07T12:47:03.275Z,2.40
2019-04-07T12:49:30.141Z,2.00
2019-04-07T12:51:57.108Z,1.80
2019-04-07T12:54:24.410Z,1.80
2019-04-07T12:56:51.288Z,2.10
2019-04-07T12:59:19.126Z,3.33
2019-04-07T13:01:48.481Z,2.63
2019-04-07T13:04:15.473Z,2.37
2019-04-07T13:06:45.222Z,2.47
2019-04-07T13:09:11.460Z,2.47
2019-04-07T13:11:42.748Z,3.17
2019-04-07T13:14:09.561Z,2.50
2019-04-07T13:16:35.960Z,2.77
2019-04-07T13:19:04.119Z,3.07
2019-04-07T13:21:32.208Z,4.12
2019-04-07T13:23:59.380Z,2.63
2019-04-07T13:26:30.255Z,4.37
2019-04-07T13:28:54.974Z,3.50
2019-04-07T13:31:21.848Z,3.17
2019-04-07T13:33:48.732Z,3.30
2019-04-07T13:36:16.010Z,3.27
2019-04-07T13:38:43.183Z,3.27
2019-04-07T13:41:10.469Z,3.20
2019-04-07T13:43:38.096Z,3.93
2019-04-07T13:46:04.736Z,4.25
2019-04-07T13:48:34.397Z,3.77
2019-04-07T13:51:01.075Z,4.03
2019-04-07T13:53:30.523Z,3.50
2019-04-07T13:55:57.247Z,3.20
2019-04-07T13:58:25.030Z,3.50
2019-04-07T14:00:52.972Z,5.20
2019-04-07T14:03:23.372Z,4.13
2019-04-07T14:05:49.096Z,3.90
2019-04-07T14:08:16.366Z,4.20
2019-04-07T14:10:43.939Z,3.50
2019-04-07T14:13:10.828Z,3.33
2019-04-07T14:15:37.634Z,4.70
2019-04-07T14:18:04.794Z,4.00
2019-04-07T14:20:31.808Z,4.23
2019-04-07T14:22:59.152Z,3.70
2019-04-07T14:25:26.779Z,4.40
2019-04-07T14:27:53.724Z,4.93
2019-04-07T14:30:21.298Z,4.20
2019-04-07T14:32:50.742Z,3.87
2019-04-07T14:35:19.419Z,4.00
2019-04-07T14:37:46.294Z,5.03
2019-04-07T14:40:13.285Z,4.90
2019-04-07T14:42:40.662Z,4.57
2019-04-07T14:45:07.807Z,5.17
2019-04-07T14:47:34.966Z,4.73
2019-04-07T14:50:02.035Z,5.60
2019-04-07T14:52:31.871Z,5.57
2019-04-07T14:54:59.911Z,4.97
2019-04-07T14:57:26.914Z,4.83
2019-04-07T14:59:54.534Z,4.93
2019-04-07T15:02:22.765Z,4.50
2019-04-07T15:04:50.946Z,4.53
2019-04-07T15:07:22.145Z,5.30
2019-04-07T15:09:50.009Z,5.63
2019-04-07T15:12:23.896Z,5.03
2019-04-07T15:14:48.041Z,5.40
2019-04-07T15:17:16.600Z,6.13
2019-04-07T15:19:44.212Z,5.20
2019-04-07T15:22:12.160Z,4.50
2019-04-07T15:24:39.582Z,4.90
2019-04-07T15:27:07.893Z,4.93
2019-04-07T15:29:39.418Z,5.33
2019-04-07T15:32:06.001Z,5.20
2019-04-07T15:34:33.265Z,5.50
2019-04-07T15:37:00.856Z,4.90
2019-04-07T15:39:28.912Z,5.30
2019-04-07T15:41:56.656Z,5.72
2019-04-07T15:44:23.473Z,4.57
2019-04-07T15:46:53.273Z,4.20
2019-04-07T15:49:20.475Z,4.53
2019-04-07T15:51:48.780Z,3.87
2019-04-07T15:54:22.322Z,6.13
2019-04-07T15:56:49.290Z,4.23
2019-04-07T15:59:17.639Z,4.53
2019-04-07T16:01:44.137Z,6.67
2019-04-07T16:04:11.767Z,5.70
2019-04-07T16:06:39.762Z,5.67
2019-04-07T16:09:11.799Z,6.93
2019-04-07T16:11:35.814Z,5.10
2019-04-07T16:14:08.692Z,5.20
2019-04-07T16:16:33.244Z,4.80
2019-04-07T16:19:00.159Z,4.37
2019-04-07T16:21:29.690Z,4.00
2019-04-07T16:23:56.063Z,4.40
2019-04-07T16:26:24.755Z,3.77
2019-04-07T16:28:51.994Z,3.57
2019-04-07T16:31:19.789Z,4.03
2019-04-07T16:33:47.522Z,4.10
2019-04-07T16:36:15.414Z,4.50
2019-04-07T16:38:44.083Z,5.53
2019-04-07T16:41:13.770Z,3.93
2019-04-07T16:43:41.991Z,4.20
2019-04-07T16:46:12.247Z,4.60
2019-04-07T16:48:40.246Z,4.23
2019-04-07T16:51:07.934Z,5.30
2019-04-07T16:53:37.928Z,5.35
2019-04-07T16:56:04.124Z,3.90
2019-04-07T16:58:35.319Z,4.93
2019-04-07T17:01:01.239Z,5.10
2019-04-07T17:03:29.579Z,3.92
2019-04-07T17:05:59.344Z,5.83
2019-04-07T17:11:13.993Z,4.63
2019-04-07T17:13:42.647Z,5.13
2019-04-07T17:16:11.851Z,10.23
2019-04-07T17:18:41.114Z,6.00
2019-04-07T17:21:09.487Z,6.53
2019-04-07T17:23:38.625Z,5.60
2019-04-07T17:26:14.449Z,9.10
2019-04-07T17:28:57.974Z,6.17
2019-04-07T17:31:27.084Z,7.87
2019-04-07T17:33:58.628Z,6.93
2019-04-07T17:36:25.309Z,6.10
2019-04-07T17:38:55.180Z,6.70
2019-04-07T17:41:25.846Z,5.80
2019-04-07T17:43:58.414Z,6.93
2019-04-07T17:46:30.628Z,7.92
2019-04-07T17:48:57.185Z,6.93
2019-04-07T17:51:26.134Z,6.33
2019-04-07T17:53:53.950Z,6.17
2019-04-07T17:56:43.144Z,7.83
2019-04-07T17:59:04.443Z,8.07
2019-04-07T18:01:44.523Z,9.48
2019-04-07T18:04:03.701Z,7.40
2019-04-07T18:06:40.639Z,5.83
2019-04-07T18:09:07.942Z,5.62
2019-04-07T18:14:10.391Z,5.75
2019-04-07T18:16:40.737Z,7.17
2019-04-07T18:19:15.561Z,7.60
2019-04-07T18:21:51.517Z,6.43
2019-04-07T18:24:18.075Z,6.33
2019-04-07T18:26:48.133Z,5.33
2019-04-07T18:29:29.406Z,6.73
2019-04-07T18:32:02.822Z,4.73
2019-04-07T18:34:31.452Z,8.43
2019-04-07T18:36:59.938Z,6.80
2019-04-07T18:39:27.483Z,6.57
2019-04-07T18:41:56.094Z,4.93
2019-04-07T18:44:42.827Z,5.60
2019-04-07T18:50:04.063Z,7.70
2019-04-07T18:52:30.567Z,5.95
2019-04-07T18:55:05.757Z,5.50
2019-04-07T18:57:32.480Z,8.30
2019-04-07T19:00:04.145Z,5.73
2019-04-07T19:02:30.103Z,6.43
2019-04-07T19:05:00.198Z,7.77
2019-04-07T19:07:29.216Z,6.53
2019-04-07T19:10:06.463Z,7.17
2019-04-07T19:12:29.990Z,7.87
2019-04-07T19:15:08.044Z,6.63
2019-04-07T19:17:33.640Z,7.57
2019-04-07T19:19:59.862Z,6.92
2019-04-07T19:22:31.419Z,7.53
2019-04-07T19:27:43.544Z,7.40
2019-04-07T19:30:13.100Z,7.03
2019-04-07T19:32:38.882Z,6.47
2019-04-07T19:35:05.861Z,5.90
2019-04-07T19:37:32.775Z,6.10
2019-04-07T19:40:01.557Z,8.10
2019-04-07T19:42:28.525Z,5.87
2019-04-07T19:44:55.506Z,6.47
2019-04-07T19:47:22.700Z,5.60
2019-04-07T19:49:50.518Z,5.97
2019-04-07T19:52:17.798Z,6.23
2019-04-07T19:54:49.457Z,5.83
2019-04-07T19:57:14.247Z,6.90
2019-04-07T19:59:42.896Z,7.83
2019-04-07T20:02:09.672Z,5.07
2019-04-07T20:04:37.179Z,7.00
2019-04-07T20:07:04.878Z,7.03
2019-04-07T20:09:32.119Z,5.90
2019-04-07T20:12:02.215Z,9.03
2019-04-07T20:14:28.451Z,8.13
2019-04-07T20:16:55.612Z,5.93
2019-04-07T20:19:22.424Z,6.50
2019-04-07T20:21:54.704Z,5.33
2019-04-07T20:24:17.744Z,5.53
2019-04-07T20:26:44.968Z,5.37
2019-04-07T20:29:11.991Z,4.83
2019-04-07T20:31:38.733Z,6.40
2019-04-07T20:34:06.120Z,6.07
2019-04-07T20:36:33.786Z,4.23
2019-04-07T20:39:00.723Z,4.67
2019-04-07T20:41:28.149Z,5.70
2019-04-07T20:43:55.764Z,5.03
2019-04-07T20:46:23.881Z,4.60
2019-04-07T20:48:50.676Z,4.83
2019-04-07T20:51:17.914Z,5.23
2019-04-07T20:53:45.157Z,5.25
2019-04-07T20:56:13.001Z,4.85
2019-04-07T20:58:46.403Z,5.60
2019-04-07T21:01:11.308Z,5.42
2019-04-07T21:03:36.559Z,7.63
2019-04-07T21:06:06.412Z,5.50
2019-04-07T21:08:34.278Z,6.07
2019-04-07T21:11:01.556Z,5.70
2019-04-07T21:13:28.946Z,5.10
2019-04-07T21:15:55.554Z,5.30
2019-04-07T21:18:23.655Z,4.85
2019-04-07T21:20:50.902Z,7.67
2019-04-07T21:23:19.481Z,6.63
2019-04-07T21:25:47.890Z,5.43
2019-04-07T21:28:14.516Z,7.10
2019-04-07T21:33:31.373Z,5.70
2019-04-07T21:36:13.001Z,5.43
2019-04-07T21:38:41.587Z,5.60
2019-04-07T21:41:19.342Z,6.40
2019-04-07T21:43:47.090Z,5.03
2019-04-07T21:46:22.415Z,5.10
2019-04-07T21:48:48.703Z,4.40
2019-04-07T21:51:19.776Z,5.37
2019-04-07T21:53:50.408Z,5.30
2019-04-07T21:56:22.211Z,5.17
2019-04-07T21:58:48.633Z,6.33
2019-04-07T22:01:19.944Z,5.17
2019-04-07T22:03:49.319Z,5.53
2019-04-07T22:06:17.733Z,10.07
2019-04-07T22:08:46.687Z,5.27
2019-04-07T22:11:13.269Z,6.12
2019-04-07T22:13:40.748Z,5.40
2019-04-07T22:16:07.997Z,5.10
2019-04-07T22:18:37.518Z,6.13
2019-04-07T22:21:03.406Z,5.40
2019-04-07T22:23:31.803Z,5.17
2019-04-07T22:26:12.638Z,5.70
2019-04-07T22:28:36.144Z,6.47
2019-04-07T22:31:03.625Z,5.20
2019-04-07T22:33:32.428Z,5.03
2019-04-07T22:35:59.618Z,5.63
2019-04-07T22:38:27.350Z,7.33
2019-04-07T22:40:54.609Z,5.12
2019-04-07T22:43:21.299Z,5.70
2019-04-07T22:45:55.771Z,4.90
2019-04-07T22:48:16.498Z,5.97
2019-04-07T22:50:43.461Z,5.17
2019-04-07T22:55:58.966Z,6.17
2019-04-07T22:58:25.839Z,4.50
2019-04-07T23:00:52.417Z,4.87
2019-04-07T23:03:19.658Z,5.60
2019-04-07T23:05:47.063Z,5.27
2019-04-07T23:08:14.545Z,4.73
2019-04-07T23:10:42.215Z,5.22
2019-04-07T23:13:13.288Z,7.07
2019-04-07T23:15:45.631Z,6.13
2019-04-07T23:18:13.770Z,7.07
2019-04-07T23:20:44.462Z,7.00
2019-04-07T23:23:15.390Z,5.83
2019-04-07T23:28:30.672Z,7.50
2019-04-07T23:30:59.035Z,6.12
2019-04-07T23:33:27.641Z,5.43
2019-04-07T23:35:57.514Z,7.23
2019-04-07T23:38:30.446Z,6.33
2019-04-07T23:41:03.293Z,7.47
2019-04-07T23:43:39.996Z,5.27
2019-04-07T23:46:05.126Z,6.00
2019-04-07T23:48:36.185Z,7.83
2019-04-07T23:51:09.032Z,6.03
2019-04-07T23:53:36.481Z,5.90
2019-04-07T23:56:10.044Z,7.97
